createdAt,value
2023-06-25T00:00:34.067Z,21.31
2023-06-25T00:03:01.718Z,21.31
2023-06-25T00:05:29.649Z,21.31
2023-06-25T00:07:57.211Z,21.29
2023-06-25T00:10:24.569Z,21.27
2023-06-25T00:12:52.085Z,21.22
2023-06-25T00:15:19.488Z,21.19
2023-06-25T00:17:49.122Z,21.10
2023-06-25T00:20:17.332Z,21.16
2023-06-25T00:22:57.553Z,21.09
2023-06-25T00:25:32.565Z,21.16
2023-06-25T00:28:01.982Z,21.20
2023-06-25T00:30:30.251Z,21.20
2023-06-25T00:32:58.142Z,21.11
2023-06-25T00:35:29.693Z,21.17
2023-06-25T00:38:02.709Z,21.24
2023-06-25T00:40:30.340Z,21.12
2023-06-25T00:43:01.484Z,21.27
2023-06-25T00:45:28.991Z,21.30
2023-06-25T00:47:56.954Z,21.43
2023-06-25T00:50:26.380Z,21.33
2023-06-25T00:52:54.098Z,21.36
2023-06-25T00:55:21.953Z,21.27
2023-06-25T00:57:49.773Z,21.43
2023-06-25T01:00:21.201Z,21.35
2023-06-25T01:02:51.878Z,21.46
2023-06-25T01:05:22.590Z,21.25
2023-06-25T01:07:52.525Z,21.05
2023-06-25T01:10:20.624Z,21.03
2023-06-25T01:12:48.086Z,20.96
2023-06-25T01:15:15.560Z,20.88
2023-06-25T01:17:43.201Z,20.83
2023-06-25T01:20:14.687Z,20.79
2023-06-25T01:22:42.388Z,20.73
2023-06-25T01:25:10.656Z,20.65
2023-06-25T01:27:38.941Z,20.76
2023-06-25T01:30:11.210Z,20.62
2023-06-25T01:32:43.103Z,20.56
2023-06-25T01:35:11.384Z,20.52
2023-06-25T01:37:39.169Z,20.54
2023-06-25T01:40:10.522Z,20.48
2023-06-25T01:42:38.038Z,20.50
2023-06-25T01:45:05.850Z,20.64
2023-06-25T01:47:33.799Z,20.73
2023-06-25T01:50:01.206Z,20.73
2023-06-25T01:52:29.042Z,20.56
2023-06-25T01:54:56.493Z,20.58
2023-06-25T01:57:23.951Z,20.65
2023-06-25T01:59:51.373Z,20.51
2023-06-25T02:02:19.057Z,20.41
2023-06-25T02:04:46.627Z,20.47
2023-06-25T02:07:14.487Z,20.35
2023-06-25T02:09:42.887Z,20.52
2023-06-25T02:12:10.405Z,20.50
2023-06-25T02:14:38.384Z,20.47
2023-06-25T02:17:06.035Z,20.46
2023-06-25T02:19:33.443Z,20.17
2023-06-25T02:22:01.103Z,20.00
2023-06-25T02:24:28.565Z,19.92
2023-06-25T02:26:56.139Z,19.69
2023-06-25T02:29:23.533Z,19.61
2023-06-25T02:31:51.098Z,19.52
2023-06-25T02:34:18.558Z,19.65
2023-06-25T02:36:46.227Z,19.61
2023-06-25T02:39:13.730Z,19.57
2023-06-25T02:41:41.119Z,19.84
2023-06-25T02:44:08.654Z,19.94
2023-06-25T02:46:36.780Z,19.95
2023-06-25T02:49:05.035Z,20.02
2023-06-25T02:51:32.508Z,19.93
2023-06-25T02:54:00.013Z,20.06
2023-06-25T02:56:28.234Z,20.21
2023-06-25T02:58:55.617Z,20.11
2023-06-25T03:01:23.216Z,20.05
2023-06-25T03:03:50.632Z,20.12
2023-06-25T03:06:18.226Z,20.14
2023-06-25T03:08:45.642Z,19.93
2023-06-25T03:11:13.261Z,19.97
2023-06-25T03:13:40.756Z,19.85
2023-06-25T03:16:08.372Z,19.88
2023-06-25T03:18:35.891Z,20.03
2023-06-25T03:21:03.282Z,20.10
2023-06-25T03:23:30.984Z,20.14
2023-06-25T03:26:00.781Z,19.92
2023-06-25T03:28:29.625Z,19.94
2023-06-25T03:30:56.944Z,19.86
2023-06-25T03:33:24.648Z,19.87
2023-06-25T03:35:52.195Z,19.98
2023-06-25T03:38:19.712Z,19.94
2023-06-25T03:40:47.377Z,20.01
2023-06-25T03:43:14.835Z,19.97
2023-06-25T03:45:42.848Z,19.94
2023-06-25T03:48:10.414Z,19.91
2023-06-25T03:50:37.987Z,19.86
2023-06-25T03:53:05.674Z,19.87
2023-06-25T03:55:36.049Z,19.82
2023-06-25T03:58:03.822Z,19.88
2023-06-25T04:00:31.182Z,19.90
2023-06-25T04:02:58.663Z,19.83
2023-06-25T04:05:26.009Z,19.72
2023-06-25T04:07:54.502Z,19.86
2023-06-25T04:10:22.073Z,19.86
2023-06-25T04:12:49.525Z,20.00
2023-06-25T04:15:18.231Z,20.00
2023-06-25T04:17:48.075Z,19.96
2023-06-25T04:20:15.758Z,20.04
2023-06-25T04:22:43.263Z,19.93
2023-06-25T04:25:12.666Z,20.05
2023-06-25T04:27:40.524Z,20.09
2023-06-25T04:30:08.468Z,20.12
2023-06-25T04:32:36.669Z,19.99
2023-06-25T04:35:04.789Z,19.94
2023-06-25T04:37:32.555Z,19.93
2023-06-25T04:40:01.716Z,20.04
2023-06-25T04:42:29.090Z,20.16
2023-06-25T04:44:56.628Z,20.21
2023-06-25T04:47:24.106Z,20.31
2023-06-25T04:49:51.704Z,20.25
2023-06-25T04:52:20.303Z,20.29
2023-06-25T04:54:47.905Z,20.47
2023-06-25T04:57:15.585Z,20.55
2023-06-25T04:59:42.917Z,20.59
2023-06-25T05:02:10.374Z,20.73
2023-06-25T05:04:37.890Z,20.69
2023-06-25T05:07:05.424Z,20.74
2023-06-25T05:09:33.041Z,20.79
2023-06-25T05:12:00.553Z,20.93
2023-06-25T05:14:28.489Z,21.12
2023-06-25T05:16:55.852Z,21.04
2023-06-25T05:19:23.203Z,20.91
2023-06-25T05:21:50.612Z,20.93
2023-06-25T05:24:18.091Z,21.01
2023-06-25T05:26:45.581Z,21.19
2023-06-25T05:29:13.036Z,21.15
2023-06-25T05:31:41.039Z,21.26
2023-06-25T05:34:08.569Z,21.24
2023-06-25T05:36:35.905Z,21.43
2023-06-25T05:39:03.486Z,21.30
2023-06-25T05:41:30.939Z,21.24
2023-06-25T05:43:59.221Z,21.28
2023-06-25T05:46:27.464Z,21.34
2023-06-25T05:48:55.889Z,21.34
2023-06-25T05:51:23.770Z,21.62
2023-06-25T05:53:58.701Z,21.99
2023-06-25T05:56:27.151Z,22.13
2023-06-25T05:58:55.354Z,22.15
2023-06-25T06:01:24.170Z,22.04
2023-06-25T06:03:53.398Z,22.43
2023-06-25T06:06:21.785Z,22.69
2023-06-25T06:08:49.993Z,22.77
2023-06-25T06:11:23.892Z,22.92
2023-06-25T06:13:55.593Z,23.13
2023-06-25T06:16:26.944Z,22.69
2023-06-25T06:18:55.353Z,22.91
2023-06-25T06:21:30.677Z,22.88
2023-06-25T06:24:13.126Z,23.01
2023-06-25T06:27:18.712Z,23.12
2023-06-25T06:29:51.677Z,23.56
2023-06-25T06:32:23.922Z,23.83
2023-06-25T06:38:04.000Z,23.97
2023-06-25T06:40:36.421Z,23.89
2023-06-25T06:43:15.903Z,23.53
2023-06-25T06:45:46.796Z,23.73
2023-06-25T06:48:15.465Z,23.75
2023-06-25T06:50:43.225Z,24.07
2023-06-25T06:53:10.717Z,24.09
2023-06-25T06:55:43.540Z,24.00
2023-06-25T06:58:11.560Z,24.17
2023-06-25T07:00:46.658Z,24.10
2023-06-25T07:03:15.406Z,24.02
2023-06-25T07:05:43.365Z,23.82
2023-06-25T07:08:11.398Z,24.31
2023-06-25T07:10:39.432Z,24.51
2023-06-25T07:13:09.857Z,24.37
2023-06-25T07:15:38.797Z,24.47
2023-06-25T07:18:07.676Z,24.33
2023-06-25T07:20:35.389Z,24.63
2023-06-25T07:23:02.916Z,24.97
2023-06-25T07:25:30.361Z,25.01
2023-06-25T07:27:57.782Z,24.60
2023-06-25T07:30:25.128Z,24.92
2023-06-25T07:32:52.733Z,24.92
2023-06-25T07:35:20.130Z,24.61
2023-06-25T07:37:47.556Z,24.97
2023-06-25T07:40:14.912Z,25.17
2023-06-25T07:42:42.297Z,25.34
2023-06-25T07:45:10.327Z,25.02
2023-06-25T07:47:37.724Z,25.15
2023-06-25T07:50:05.830Z,25.08
2023-06-25T07:52:33.569Z,25.23
2023-06-25T07:55:01.127Z,25.08
2023-06-25T07:57:28.561Z,25.05
2023-06-25T07:59:56.116Z,25.27
2023-06-25T08:02:23.715Z,25.43
2023-06-25T08:04:51.428Z,25.57
2023-06-25T08:07:19.170Z,25.72
2023-06-25T08:09:47.579Z,26.28
2023-06-25T08:12:17.574Z,26.17
2023-06-25T08:14:46.646Z,26.53
2023-06-25T08:17:14.046Z,26.39
2023-06-25T08:19:41.470Z,26.33
2023-06-25T08:22:08.841Z,26.27
2023-06-25T08:24:36.148Z,26.65
2023-06-25T08:27:03.699Z,26.97
2023-06-25T08:29:32.192Z,27.06
2023-06-25T08:31:59.647Z,26.96
2023-06-25T08:34:27.940Z,27.21
2023-06-25T08:36:56.548Z,27.41
2023-06-25T08:39:23.865Z,27.56
2023-06-25T08:49:15.584Z,27.43
2023-06-25T09:01:27.400Z,27.75
2023-06-25T09:07:05.256Z,27.43
2023-06-25T09:09:32.929Z,27.40
2023-06-25T09:12:00.435Z,27.49
2023-06-25T09:14:27.910Z,27.51
2023-06-25T09:16:56.207Z,27.97
2023-06-25T09:19:23.762Z,28.27
2023-06-25T09:21:51.527Z,28.24
2023-06-25T09:24:22.687Z,28.42
2023-06-25T09:26:51.540Z,28.42
2023-06-25T09:29:19.834Z,28.38
2023-06-25T09:31:48.025Z,28.47
2023-06-25T09:34:16.461Z,28.61
2023-06-25T09:36:44.852Z,28.10
2023-06-25T09:39:13.558Z,28.49
2023-06-25T09:41:44.673Z,27.91
2023-06-25T09:44:14.244Z,28.22
2023-06-25T09:46:42.644Z,28.60
2023-06-25T09:49:10.331Z,28.73
2023-06-25T09:51:53.078Z,28.94
2023-06-25T09:54:22.610Z,29.08
2023-06-25T09:56:50.944Z,28.82
2023-06-25T09:59:18.891Z,28.64
2023-06-25T10:01:46.391Z,28.34
2023-06-25T10:04:13.902Z,28.34
2023-06-25T10:06:41.515Z,27.99
2023-06-25T10:09:09.074Z,28.54
2023-06-25T10:11:36.990Z,28.79
2023-06-25T10:14:05.265Z,28.30
2023-06-25T10:16:38.960Z,28.75
2023-06-25T10:19:07.643Z,28.91
2023-06-25T10:21:35.148Z,29.25
2023-06-25T10:24:04.085Z,28.78
2023-06-25T10:26:32.178Z,28.68
2023-06-25T10:29:06.289Z,29.01
2023-06-25T10:31:40.932Z,29.21
2023-06-25T10:34:10.196Z,28.89
2023-06-25T10:36:48.745Z,29.26
2023-06-25T10:39:16.232Z,28.91
2023-06-25T10:41:47.124Z,29.10
2023-06-25T10:44:16.659Z,28.99
2023-06-25T10:46:44.341Z,29.10
2023-06-25T10:49:19.161Z,28.96
2023-06-25T10:51:46.574Z,29.19
2023-06-25T10:54:15.287Z,28.92
2023-06-25T10:56:43.027Z,28.86
2023-06-25T10:59:10.382Z,29.13
2023-06-25T11:01:37.916Z,29.45
2023-06-25T11:04:14.152Z,29.06
2023-06-25T11:06:41.627Z,29.35
2023-06-25T11:09:09.165Z,29.42
2023-06-25T11:11:38.143Z,28.84
2023-06-25T11:14:05.812Z,28.25
2023-06-25T11:16:33.245Z,28.72
2023-06-25T11:19:00.626Z,29.28
2023-06-25T11:21:28.276Z,29.22
2023-06-25T11:23:55.910Z,29.56
2023-06-25T11:26:23.303Z,29.51
2023-06-25T11:28:51.159Z,29.80
2023-06-25T11:31:18.564Z,29.87
2023-06-25T11:33:54.408Z,29.82
2023-06-25T11:36:24.024Z,30.04
2023-06-25T11:38:51.534Z,29.76
2023-06-25T11:41:26.279Z,29.46
2023-06-25T11:43:53.540Z,29.48
2023-06-25T11:46:22.267Z,29.50
2023-06-25T11:48:49.938Z,29.91
2023-06-25T11:51:17.515Z,29.77
2023-06-25T11:53:44.845Z,29.92
2023-06-25T11:56:12.393Z,29.48
2023-06-25T11:58:39.891Z,29.95
2023-06-25T12:01:08.811Z,29.71
2023-06-25T12:03:39.386Z,29.51
2023-06-25T12:06:08.349Z,29.94
2023-06-25T12:08:36.466Z,29.81
2023-06-25T12:11:03.830Z,29.99
2023-06-25T12:13:31.532Z,30.19
2023-06-25T12:15:59.189Z,30.08
2023-06-25T12:18:26.596Z,30.09
2023-06-25T12:20:53.921Z,29.78
2023-06-25T12:23:21.427Z,29.80
2023-06-25T12:25:49.101Z,29.95
2023-06-25T12:28:19.007Z,29.76
2023-06-25T12:30:46.463Z,29.80
2023-06-25T12:33:14.022Z,30.08
2023-06-25T12:35:41.547Z,30.13
2023-06-25T12:38:09.078Z,30.15
2023-06-25T12:40:36.363Z,29.98
2023-06-25T12:43:03.961Z,30.32
2023-06-25T12:45:31.296Z,30.62
2023-06-25T12:47:58.673Z,30.33
2023-06-25T12:50:26.254Z,30.45
2023-06-25T12:52:53.548Z,30.67
2023-06-25T12:55:21.144Z,30.70
2023-06-25T12:57:48.443Z,30.64
2023-06-25T13:00:24.467Z,30.84
2023-06-25T13:03:01.238Z,31.06
2023-06-25T13:05:28.688Z,30.79
2023-06-25T13:07:56.348Z,30.66
2023-06-25T13:10:24.736Z,30.70
2023-06-25T13:12:52.032Z,30.72
2023-06-25T13:15:19.861Z,30.79
2023-06-25T13:17:47.128Z,30.95
2023-06-25T13:20:14.669Z,30.66
2023-06-25T13:22:43.760Z,30.67
2023-06-25T13:25:11.422Z,30.69
2023-06-25T13:27:38.885Z,30.46
2023-06-25T13:30:07.290Z,30.03
2023-06-25T13:32:34.767Z,30.38
2023-06-25T13:35:02.619Z,30.07
2023-06-25T13:37:30.630Z,30.42
2023-06-25T13:39:58.004Z,30.76
2023-06-25T13:42:25.892Z,30.64
2023-06-25T13:44:53.167Z,30.81
2023-06-25T13:47:20.587Z,31.05
2023-06-25T13:49:47.875Z,30.50
2023-06-25T13:52:15.356Z,30.63
2023-06-25T13:54:42.985Z,30.59
2023-06-25T13:57:10.397Z,30.54
2023-06-25T13:59:37.699Z,30.81
2023-06-25T14:02:05.463Z,30.44
2023-06-25T14:04:32.792Z,30.43
2023-06-25T14:07:00.239Z,30.97
2023-06-25T14:09:27.733Z,30.88
2023-06-25T14:11:55.167Z,30.32
2023-06-25T14:14:22.706Z,30.73
2023-06-25T14:16:50.105Z,31.17
2023-06-25T14:19:18.201Z,31.26
2023-06-25T14:21:48.409Z,31.18
2023-06-25T14:24:15.968Z,30.97
2023-06-25T14:26:43.460Z,31.15
2023-06-25T14:29:12.233Z,31.10
2023-06-25T14:31:40.043Z,30.71
2023-06-25T14:34:07.509Z,30.62
2023-06-25T14:36:34.979Z,30.60
2023-06-25T14:39:22.650Z,30.61
2023-06-25T14:41:49.937Z,30.54
2023-06-25T14:44:19.166Z,30.33
2023-06-25T14:46:46.655Z,30.66
2023-06-25T14:49:13.931Z,30.43
2023-06-25T14:51:44.046Z,30.47
2023-06-25T14:54:11.404Z,30.88
2023-06-25T14:56:38.673Z,31.06
2023-06-25T14:59:05.984Z,30.99
2023-06-25T15:01:33.359Z,31.10
2023-06-25T15:04:01.006Z,30.87
2023-06-25T15:06:35.536Z,31.14
2023-06-25T15:09:04.363Z,30.76
2023-06-25T15:11:31.762Z,30.44
2023-06-25T15:14:00.788Z,30.64
2023-06-25T15:16:28.637Z,30.20
2023-06-25T15:18:56.005Z,30.64
2023-06-25T15:21:23.515Z,30.32
2023-06-25T15:23:50.876Z,30.17
2023-06-25T15:26:18.448Z,30.18
2023-06-25T15:28:47.190Z,30.03
2023-06-25T15:31:14.677Z,30.46
2023-06-25T15:33:42.416Z,30.66
2023-06-25T15:36:09.893Z,30.38
2023-06-25T15:39:11.262Z,30.34
2023-06-25T15:41:39.525Z,30.34
2023-06-25T15:44:07.387Z,29.90
2023-06-25T15:46:34.810Z,30.07
2023-06-25T15:49:02.179Z,30.18
2023-06-25T15:51:30.272Z,30.66
2023-06-25T15:53:57.588Z,30.45
2023-06-25T15:56:25.009Z,30.11
2023-06-25T15:58:52.607Z,30.25
2023-06-25T16:02:03.981Z,30.05
2023-06-25T16:04:31.453Z,29.93
2023-06-25T16:06:59.043Z,30.07
2023-06-25T16:09:30.359Z,29.96
2023-06-25T16:11:57.810Z,30.13
2023-06-25T16:14:26.064Z,29.92
2023-06-25T16:16:54.574Z,29.92
2023-06-25T16:19:48.512Z,30.18
2023-06-25T16:22:10.576Z,30.24
2023-06-25T16:24:37.871Z,30.53
2023-06-25T16:27:05.597Z,30.63
2023-06-25T16:29:33.277Z,30.17
2023-06-25T16:32:01.160Z,30.38
2023-06-25T16:34:28.741Z,30.34
2023-06-25T16:36:56.270Z,30.33
2023-06-25T16:39:23.659Z,29.95
2023-06-25T16:41:51.077Z,29.97
2023-06-25T16:44:18.428Z,30.04
2023-06-25T16:46:45.813Z,29.79
2023-06-25T16:49:13.294Z,29.94
2023-06-25T16:51:40.825Z,29.76
2023-06-25T16:54:08.268Z,29.97
2023-06-25T16:56:35.621Z,30.07
2023-06-25T16:59:03.591Z,29.87
2023-06-25T17:01:31.076Z,29.77
2023-06-25T17:03:58.602Z,29.50
2023-06-25T17:06:26.100Z,29.49
2023-06-25T17:08:53.543Z,29.46
2023-06-25T17:11:20.902Z,29.52
2023-06-25T17:13:48.505Z,29.28
2023-06-25T17:16:15.858Z,29.21
2023-06-25T17:18:43.181Z,29.51
2023-06-25T17:21:10.576Z,29.33
2023-06-25T17:23:37.924Z,29.41
2023-06-25T17:26:05.297Z,29.40
2023-06-25T17:28:32.835Z,29.26
2023-06-25T17:31:00.117Z,29.22
2023-06-25T17:33:27.539Z,29.16
2023-06-25T17:35:55.003Z,29.35
2023-06-25T17:38:22.493Z,29.71
2023-06-25T17:40:50.014Z,29.40
2023-06-25T17:43:21.136Z,29.16
2023-06-25T17:45:48.806Z,29.10
2023-06-25T17:48:16.489Z,29.13
2023-06-25T17:50:47.339Z,29.19
2023-06-25T17:53:14.909Z,29.30
2023-06-25T17:55:42.262Z,29.44
2023-06-25T17:58:09.973Z,29.15
2023-06-25T18:00:37.266Z,29.26
2023-06-25T18:03:05.096Z,28.91
2023-06-25T18:05:32.561Z,28.82
2023-06-25T18:08:00.091Z,28.78
2023-06-25T18:10:27.650Z,28.79
2023-06-25T18:12:56.366Z,28.72
2023-06-25T18:15:23.989Z,28.64
2023-06-25T18:17:51.452Z,28.77
2023-06-25T18:20:19.006Z,28.76
2023-06-25T18:22:50.767Z,28.57
2023-06-25T18:25:19.864Z,28.58
2023-06-25T18:27:47.272Z,28.50
2023-06-25T18:30:14.983Z,28.43
2023-06-25T18:32:42.375Z,28.38
2023-06-25T18:35:09.954Z,28.35
2023-06-25T18:37:37.433Z,28.31
2023-06-25T18:40:05.923Z,28.24
2023-06-25T18:42:33.458Z,28.04
2023-06-25T18:45:00.972Z,28.02
2023-06-25T18:47:30.833Z,27.98
2023-06-25T18:49:58.360Z,27.92
2023-06-25T18:52:25.871Z,27.95
2023-06-25T18:54:53.408Z,27.95
2023-06-25T18:57:20.715Z,27.79
2023-06-25T18:59:48.183Z,27.57
2023-06-25T19:02:15.843Z,27.41
2023-06-25T19:04:43.397Z,27.20
2023-06-25T19:07:10.878Z,27.04
2023-06-25T19:09:38.425Z,27.16
2023-06-25T19:12:06.046Z,27.15
2023-06-25T19:14:33.582Z,27.23
2023-06-25T19:17:01.012Z,26.95
2023-06-25T19:19:28.833Z,26.82
2023-06-25T19:21:56.393Z,26.62
2023-06-25T19:24:23.967Z,26.56
2023-06-25T19:26:51.559Z,26.34
2023-06-25T19:29:20.427Z,26.23
2023-06-25T19:31:49.443Z,26.01
2023-06-25T19:34:16.861Z,26.05
2023-06-25T19:36:44.363Z,26.19
2023-06-25T19:39:11.873Z,26.14
2023-06-25T19:41:39.431Z,26.31
2023-06-25T19:44:07.114Z,26.07
2023-06-25T19:46:34.653Z,26.06
2023-06-25T19:49:03.177Z,25.99
2023-06-25T19:51:30.701Z,25.76
2023-06-25T19:53:58.165Z,25.86
2023-06-25T19:56:25.673Z,25.50
2023-06-25T19:58:53.284Z,25.51
2023-06-25T20:01:20.776Z,25.83
2023-06-25T20:03:48.362Z,25.78
2023-06-25T20:06:15.761Z,25.38
2023-06-25T20:08:43.414Z,25.38
2023-06-25T20:11:10.986Z,25.24
2023-06-25T20:13:38.981Z,25.13
2023-06-25T20:16:06.472Z,25.24
2023-06-25T20:18:34.503Z,25.24
2023-06-25T20:21:02.052Z,25.33
2023-06-25T20:23:29.955Z,25.22
2023-06-25T20:25:57.550Z,25.25
2023-06-25T20:28:24.997Z,25.29
2023-06-25T20:30:52.352Z,25.34
2023-06-25T20:33:19.966Z,25.20
2023-06-25T20:35:47.423Z,25.17
2023-06-25T20:38:14.889Z,25.15
2023-06-25T20:40:42.288Z,25.17
2023-06-25T20:43:10.414Z,25.01
2023-06-25T20:45:39.137Z,24.98
2023-06-25T20:48:07.095Z,24.94
2023-06-25T20:50:34.533Z,24.84
2023-06-25T20:53:02.199Z,24.86
2023-06-25T20:55:29.747Z,24.69
2023-06-25T20:57:57.012Z,24.61
2023-06-25T21:00:24.422Z,24.67
2023-06-25T21:02:56.415Z,24.63
2023-06-25T21:05:24.399Z,24.60
2023-06-25T21:07:51.917Z,24.56
2023-06-25T21:10:19.408Z,24.59
2023-06-25T21:12:46.989Z,24.61
2023-06-25T21:15:14.448Z,24.57
2023-06-25T21:17:41.749Z,24.54
2023-06-25T21:20:09.366Z,24.55
2023-06-25T21:22:37.082Z,24.54
2023-06-25T21:25:04.977Z,24.56
2023-06-25T21:27:32.616Z,24.56
2023-06-25T21:30:00.100Z,24.54
2023-06-25T21:32:27.612Z,24.46
2023-06-25T21:34:55.098Z,24.44
2023-06-25T21:37:22.664Z,24.39
2023-06-25T21:39:49.981Z,24.31
2023-06-25T21:42:17.428Z,24.32
2023-06-25T21:44:44.888Z,24.33
2023-06-25T21:47:12.598Z,24.41
2023-06-25T21:49:39.964Z,24.29
2023-06-25T21:52:11.019Z,24.36
2023-06-25T21:54:38.726Z,24.24
2023-06-25T21:57:06.129Z,24.10
2023-06-25T21:59:33.736Z,24.05
2023-06-25T22:02:04.860Z,24.06
2023-06-25T22:04:32.451Z,24.01
2023-06-25T22:07:00.072Z,23.88
2023-06-25T22:09:27.565Z,23.58
2023-06-25T22:11:57.841Z,23.68
2023-06-25T22:14:25.455Z,23.67
2023-06-25T22:16:54.311Z,23.46
2023-06-25T22:19:21.854Z,23.50
2023-06-25T22:21:49.326Z,23.56
2023-06-25T22:24:16.936Z,23.58
2023-06-25T22:26:44.234Z,23.67
2023-06-25T22:29:11.802Z,23.56
2023-06-25T22:31:40.850Z,23.53
2023-06-25T22:34:08.315Z,23.45
2023-06-25T22:36:36.021Z,23.51
2023-06-25T22:39:03.693Z,23.32
2023-06-25T22:41:32.170Z,23.46
2023-06-25T22:43:59.722Z,23.53
2023-06-25T22:46:27.076Z,23.64
2023-06-25T22:48:54.638Z,23.63
2023-06-25T22:51:21.998Z,23.52
2023-06-25T22:53:49.510Z,23.45
2023-06-25T22:56:16.918Z,23.57
2023-06-25T22:58:44.382Z,23.45
2023-06-25T23:01:14.661Z,23.20
2023-06-25T23:03:45.486Z,23.28
2023-06-25T23:06:13.929Z,23.20
2023-06-25T23:08:41.226Z,22.98
2023-06-25T23:11:08.791Z,22.88
2023-06-25T23:13:36.245Z,22.83
2023-06-25T23:16:03.758Z,22.60
2023-06-25T23:18:31.369Z,22.78
2023-06-25T23:21:05.173Z,22.86
2023-06-25T23:23:35.506Z,22.89
2023-06-25T23:26:09.275Z,22.98
2023-06-25T23:28:36.977Z,22.93
2023-06-25T23:31:07.105Z,23.04
2023-06-25T23:33:34.663Z,23.09
2023-06-25T23:36:02.576Z,23.07
2023-06-25T23:38:30.201Z,23.09
2023-06-25T23:40:57.643Z,22.95
2023-06-25T23:43:25.578Z,22.86
2023-06-25T23:45:53.157Z,22.81
2023-06-25T23:48:20.588Z,22.69
2023-06-25T23:50:47.980Z,22.46
2023-06-25T23:53:15.540Z,22.50
2023-06-25T23:55:42.957Z,22.56
2023-06-25T23:58:10.487Z,22.33
